Time,TemperatureF,DewpointF,PressureIn,WindDirection,WindDirectionDegrees,WindSpeedMPH,WindSpeedGustMPH,Humidity,HourlyPrecipIn,Conditions,Clouds,dailyrainin,SoftwareType,DateUTC
2013-07-18 00:01:00,76.1,71.6,30.16,East,79,0.0,0.0,86,0.00,,CLR,0.00,VWS V14.01,2013-07-18 04:01:00,
2013-07-18 00:06:00,76.1,71.6,30.16,East,79,0.0,0.0,86,0.00,,CLR,0.00,VWS V14.01,2013-07-18 04:06:00,
2013-07-18 00:11:00,76.0,71.5,30.16,East,79,0.0,0.0,86,0.00,,CLR,0.00,VWS V14.01,2013-07-18 04:11:00,
2013-07-18 00:16:00,75.8,71.3,30.16,East,79,0.0,0.0,86,0.00,,CLR,0.00,VWS V14.01,2013-07-18 04:16:00,
2013-07-18 00:21:00,75.6,71.1,30.16,East,79,0.0,0.0,86,0.00,,CLR,0.00,VWS V14.01,2013-07-18 04:21:00,
2013-07-18 00:26:00,75.6,71.4,30.16,East,79,0.0,0.0,87,0.00,,CLR,0.00,VWS V14.01,2013-07-18 04:26:00,
2013-07-18 00:31:00,75.6,71.4,30.16,East,79,0.0,0.0,87,0.00,,CLR,0.00,VWS V14.01,2013-07-18 04:31:00,
2013-07-18 00:36:00,75.4,71.2,30.16,East,79,0.0,0.0,87,0.00,,CLR,0.00,VWS V14.01,2013-07-18 04:36:00,
2013-07-18 00:41:00,75.3,71.1,30.16,East,79,0.0,0.0,87,0.00,,CLR,0.00,VWS V14.01,2013-07-18 04:41:00,
2013-07-18 00:46:00,75.3,71.1,30.16,East,79,0.0,0.0,87,0.00,,CLR,0.00,VWS V14.01,2013-07-18 04:46:00,
2013-07-18 00:51:00,75.1,71.3,30.16,East,79,0.0,0.0,88,0.00,,CLR,0.00,VWS V14.01,2013-07-18 04:51:00,
2013-07-18 00:56:00,74.9,71.1,30.16,East,79,0.0,0.0,88,0.00,,CLR,0.00,VWS V14.01,2013-07-18 04:56:00,
2013-07-18 01:01:00,74.9,71.1,30.15,East,79,0.0,0.0,88,0.00,,CLR,0.00,VWS V14.01,2013-07-18 05:01:00,
2013-07-18 01:06:00,74.7,70.9,30.15,East,80,0.0,0.0,88,0.00,,CLR,0.00,VWS V14.01,2013-07-18 05:06:00,
2013-07-18 01:11:00,74.7,70.9,30.15,East,79,0.0,0.0,88,0.00,,CLR,0.00,VWS V14.01,2013-07-18 05:11:00,
2013-07-18 01:16:00,74.7,70.9,30.15,East,79,0.0,0.0,88,0.00,,CLR,0.00,VWS V14.01,2013-07-18 05:16:00,
2013-07-18 01:21:00,74.7,71.2,30.15,East,79,0.0,0.0,89,0.00,,CLR,0.00,VWS V14.01,2013-07-18 05:21:00,
2013-07-18 01:26:00,74.7,71.2,30.15,East,79,0.0,0.0,89,0.00,,CLR,0.00,VWS V14.01,2013-07-18 05:26:00,
2013-07-18 01:31:00,74.7,71.2,30.15,East,79,0.0,0.0,89,0.00,,CLR,0.00,VWS V14.01,2013-07-18 05:31:00,
2013-07-18 01:36:00,74.6,71.1,30.15,East,79,0.0,0.0,89,0.00,,CLR,0.00,VWS V14.01,2013-07-18 05:36:00,
2013-07-18 01:41:00,74.6,71.1,30.15,East,79,0.0,0.0,89,0.00,,FEW050,0.00,VWS V14.01,2013-07-18 05:41:00,
2013-07-18 01:46:00,74.6,71.4,30.15,East,79,0.0,0.0,90,0.00,,FEW050,0.00,VWS V14.01,2013-07-18 05:46:00,
2013-07-18 01:51:00,74.6,71.4,30.15,East,80,1.2,1.2,90,0.00,,FEW050,0.00,VWS V14.01,2013-07-18 05:51:00,
2013-07-18 01:56:00,74.4,71.2,30.15,East,80,0.0,0.0,90,0.00,,FEW050,0.00,VWS V14.01,2013-07-18 05:56:00,
2013-07-18 02:01:00,74.4,71.2,30.15,East,80,0.0,0.0,90,0.00,,FEW050,0.00,VWS V14.01,2013-07-18 06:01:00,
2013-07-18 02:06:00,74.2,71.1,30.15,East,80,0.0,0.0,90,0.00,,FEW050,0.00,VWS V14.01,2013-07-18 06:06:00,
2013-07-18 02:11:00,74.2,71.1,30.15,East,80,0.0,0.0,90,0.00,,FEW050,0.00,VWS V14.01,2013-07-18 06:11:00,
2013-07-18 02:16:00,74.0,70.8,30.14,East,80,0.0,0.0,90,0.00,,FEW050,0.00,VWS V14.01,2013-07-18 06:16:00,
2013-07-18 02:21:00,74.0,70.8,30.14,East,80,0.0,0.0,90,0.00,,FEW050,0.00,VWS V14.01,2013-07-18 06:21:00,
2013-07-18 02:26:00,73.9,70.8,30.14,East,80,0.0,0.0,90,0.00,,FEW050,0.00,VWS V14.01,2013-07-18 06:26:00,
2013-07-18 02:31:00,73.7,70.6,30.14,East,80,0.0,0.0,90,0.00,,FEW050,0.00,VWS V14.01,2013-07-18 06:31:00,
2013-07-18 02:36:00,73.7,70.6,30.14,East,80,0.0,0.0,90,0.00,,FEW050,0.00,VWS V14.01,2013-07-18 06:36:00,
2013-07-18 02:41:00,73.5,70.4,30.14,East,80,0.0,0.0,90,0.00,,CLR,0.00,VWS V14.01,2013-07-18 06:41:00,
2013-07-18 02:46:00,73.3,70.2,30.14,East,80,0.0,0.0,90,0.00,,CLR,0.00,VWS V14.01,2013-07-18 06:46:00,
2013-07-18 02:51:00,73.3,70.5,30.14,East,80,0.0,0.0,91,0.00,,CLR,0.00,VWS V14.01,2013-07-18 06:51:00,
2013-07-18 02:56:00,73.3,70.5,30.14,East,80,0.0,0.0,91,0.00,,CLR,0.00,VWS V14.01,2013-07-18 06:56:00,
2013-07-18 03:01:00,73.3,70.5,30.14,East,80,0.0,0.0,91,0.00,,CLR,0.00,VWS V14.01,2013-07-18 07:01:00,
2013-07-18 03:06:00,73.2,70.4,30.14,East,80,0.0,0.0,91,0.00,,CLR,0.00,VWS V14.01,2013-07-18 07:06:00,
2013-07-18 03:11:00,73.2,70.4,30.14,East,80,0.0,0.0,91,0.00,,CLR,0.00,VWS V14.01,2013-07-18 07:11:00,
2013-07-18 03:16:00,73.2,70.4,30.13,East,80,0.0,0.0,91,0.00,,CLR,0.00,VWS V14.01,2013-07-18 07:16:00,
2013-07-18 03:21:00,73.2,70.4,30.13,East,80,0.0,0.0,91,0.00,,CLR,0.00,VWS V14.01,2013-07-18 07:21:00,
2013-07-18 03:26:00,73.0,70.2,30.13,East,80,0.0,0.0,91,0.00,,CLR,0.00,VWS V14.01,2013-07-18 07:26:00,
2013-07-18 03:31:00,73.0,70.2,30.13,East,80,0.0,0.0,91,0.00,,CLR,0.00,VWS V14.01,2013-07-18 07:31:00,
2013-07-18 03:36:00,73.0,70.2,30.13,East,80,0.0,0.0,91,0.00,,CLR,0.00,VWS V14.01,2013-07-18 07:36:00,
2013-07-18 03:41:00,72.8,70.3,30.13,East,80,0.0,0.0,92,0.00,,CLR,0.00,VWS V14.01,2013-07-18 07:41:00,
2013-07-18 03:46:00,72.8,70.3,30.14,East,80,0.0,0.0,92,0.00,,CLR,0.00,VWS V14.01,2013-07-18 07:46:00,
2013-07-18 03:51:00,72.8,70.3,30.13,East,80,0.0,0.0,92,0.00,,CLR,0.00,VWS V14.01,2013-07-18 07:51:00,
2013-07-18 03:56:00,72.8,70.3,30.13,East,80,0.0,1.2,92,0.00,,CLR,0.00,VWS V14.01,2013-07-18 07:56:00,
2013-07-18 04:01:00,72.8,70.3,30.13,East,80,0.0,0.0,92,0.00,,CLR,0.00,VWS V14.01,2013-07-18 08:01:00,
2013-07-18 04:06:00,72.7,70.2,30.13,East,80,0.0,0.0,92,0.00,,CLR,0.00,VWS V14.01,2013-07-18 08:06:00,
2013-07-18 04:11:00,72.7,70.5,30.13,East,80,0.0,0.0,93,0.00,,CLR,0.00,VWS V14.01,2013-07-18 08:11:00,
2013-07-18 04:16:00,72.7,70.5,30.13,East,80,0.0,0.0,93,0.00,,CLR,0.00,VWS V14.01,2013-07-18 08:16:00,
2013-07-18 04:22:00,72.5,70.3,30.13,East,80,0.0,0.0,93,0.00,,CLR,0.00,VWS V14.01,2013-07-18 08:22:00,
2013-07-18 04:27:00,72.5,70.3,30.13,East,80,0.0,0.0,93,0.00,,CLR,0.00,VWS V14.01,2013-07-18 08:27:00,
2013-07-18 04:32:00,72.5,70.3,30.13,East,80,0.0,0.0,93,0.00,,CLR,0.00,VWS V14.01,2013-07-18 08:32:00,
2013-07-18 04:37:00,72.3,70.1,30.13,East,80,0.0,0.0,93,0.00,,CLR,0.00,VWS V14.01,2013-07-18 08:37:00,
2013-07-18 04:42:00,72.3,70.1,30.13,East,80,0.0,0.0,93,0.00,,CLR,0.00,VWS V14.01,2013-07-18 08:42:00,
2013-07-18 04:47:00,72.1,69.9,30.13,East,80,0.0,0.0,93,0.00,,CLR,0.00,VWS V14.01,2013-07-18 08:47:00,
2013-07-18 04:52:00,72.1,69.9,30.13,East,80,0.0,0.0,93,0.00,,CLR,0.00,VWS V14.01,2013-07-18 08:52:00,
2013-07-18 04:57:00,72.1,69.9,30.13,East,80,0.0,0.0,93,0.00,,CLR,0.00,VWS V14.01,2013-07-18 08:57:00,
2013-07-18 05:02:00,72.1,69.9,30.13,East,80,0.0,0.0,93,0.00,,CLR,0.00,VWS V14.01,2013-07-18 09:02:00,
2013-07-18 05:07:00,72.1,70.3,30.13,East,80,0.0,0.0,94,0.00,,CLR,0.00,VWS V14.01,2013-07-18 09:07:00,
2013-07-18 05:12:00,72.1,70.3,30.13,East,80,0.0,0.0,94,0.00,,CLR,0.00,VWS V14.01,2013-07-18 09:12:00,
2013-07-18 05:17:00,72.1,70.3,30.13,East,80,0.0,0.0,94,0.00,,CLR,0.00,VWS V14.01,2013-07-18 09:17:00,
2013-07-18 05:22:00,72.1,70.3,30.13,East,80,0.0,0.0,94,0.00,,CLR,0.00,VWS V14.01,2013-07-18 09:22:00,
2013-07-18 05:27:00,72.1,70.3,30.13,East,80,0.0,0.0,94,0.00,,CLR,0.00,VWS V14.01,2013-07-18 09:27:00,
2013-07-18 05:32:00,72.1,70.3,30.13,East,80,0.0,0.0,94,0.00,,CLR,0.00,VWS V14.01,2013-07-18 09:32:00,
2013-07-18 05:37:00,72.1,70.3,30.13,East,80,0.0,0.0,94,0.00,,CLR,0.00,VWS V14.01,2013-07-18 09:37:00,
2013-07-18 05:42:00,72.0,70.2,30.13,East,80,0.0,0.0,94,0.00,,CLR,0.00,VWS V14.01,2013-07-18 09:42:00,
2013-07-18 05:47:00,72.0,70.2,30.12,East,80,0.0,0.0,94,0.00,,CLR,0.00,VWS V14.01,2013-07-18 09:47:00,
2013-07-18 05:52:00,71.8,70.0,30.12,East,80,0.0,0.0,94,0.00,,CLR,0.00,VWS V14.01,2013-07-18 09:52:00,
2013-07-18 05:57:00,71.8,70.0,30.12,East,80,0.0,0.0,94,0.00,,CLR,0.00,VWS V14.01,2013-07-18 09:57:00,
2013-07-18 06:02:00,71.8,70.0,30.12,SSW,205,0.0,0.0,94,0.00,,CLR,0.00,VWS V14.01,2013-07-18 10:02:00,
2013-07-18 06:07:00,71.6,69.8,30.13,SSW,205,0.0,0.0,94,0.00,,CLR,0.00,VWS V14.01,2013-07-18 10:07:00,
2013-07-18 06:12:00,71.6,69.8,30.12,SSW,205,0.0,0.0,94,0.00,,CLR,0.00,VWS V14.01,2013-07-18 10:12:00,
2013-07-18 06:17:00,71.6,69.8,30.13,SSW,205,0.0,0.0,94,0.00,,CLR,0.00,VWS V14.01,2013-07-18 10:17:00,
2013-07-18 06:22:00,71.5,69.7,30.12,SSW,205,0.0,0.0,94,0.00,,CLR,0.00,VWS V14.01,2013-07-18 10:22:00,
2013-07-18 06:27:00,71.5,69.7,30.12,SSW,205,0.0,0.0,94,0.00,,CLR,0.00,VWS V14.01,2013-07-18 10:27:00,
2013-07-18 06:32:00,71.3,69.5,30.12,SSW,205,0.0,0.0,94,0.00,,CLR,0.00,VWS V14.01,2013-07-18 10:32:00,
2013-07-18 06:37:00,71.3,69.5,30.12,SSW,198,0.0,0.0,94,0.00,,CLR,0.00,VWS V14.01,2013-07-18 10:37:00,
2013-07-18 06:42:00,71.1,69.3,30.12,ESE,120,0.0,0.0,94,0.00,,CLR,0.00,VWS V14.01,2013-07-18 10:42:00,
2013-07-18 06:47:00,71.1,69.3,30.12,ESE,120,0.0,0.0,94,0.00,,CLR,0.00,VWS V14.01,2013-07-18 10:47:00,
2013-07-18 06:52:00,71.1,69.3,30.13,ESE,120,0.0,0.0,94,0.00,,CLR,0.00,VWS V14.01,2013-07-18 10:52:00,
2013-07-18 06:57:00,71.1,69.3,30.13,ESE,120,0.0,0.0,94,0.00,,CLR,0.00,VWS V14.01,2013-07-18 10:57:00,
2013-07-18 07:02:00,71.3,69.5,30.12,ESE,120,0.0,0.0,94,0.00,,CLR,0.00,VWS V14.01,2013-07-18 11:02:00,
2013-07-18 07:07:00,71.5,70.0,30.12,ESE,120,0.0,0.0,95,0.00,,CLR,0.00,VWS V14.01,2013-07-18 11:07:00,
2013-07-18 07:12:00,71.5,70.0,30.12,ESE,120,0.0,0.0,95,0.00,,CLR,0.00,VWS V14.01,2013-07-18 11:12:00,
2013-07-18 07:17:00,71.6,70.1,30.12,ESE,120,0.0,0.0,95,0.00,,CLR,0.00,VWS V14.01,2013-07-18 11:17:00,
2013-07-18 07:22:00,71.8,70.3,30.13,ESE,120,0.0,0.0,95,0.00,,CLR,0.00,VWS V14.01,2013-07-18 11:22:00,
2013-07-18 07:27:00,72.1,70.9,30.13,SSW,202,0.0,0.0,96,0.00,,CLR,0.00,VWS V14.01,2013-07-18 11:27:00,
2013-07-18 07:32:00,72.1,70.9,30.12,North,351,0.0,0.0,96,0.00,,CLR,0.00,VWS V14.01,2013-07-18 11:32:00,
2013-07-18 07:37:00,72.7,71.8,30.12,North,351,0.0,0.0,97,0.00,,CLR,0.00,VWS V14.01,2013-07-18 11:37:00,
2013-07-18 07:42:00,73.0,72.1,30.12,North,351,0.0,0.0,97,0.00,,CLR,0.00,VWS V14.01,2013-07-18 11:42:00,
2013-07-18 07:47:00,73.3,72.7,30.13,North,351,0.0,1.2,98,0.00,,CLR,0.00,VWS V14.01,2013-07-18 11:47:00,
2013-07-18 07:52:00,73.9,73.6,30.13,North,351,0.0,0.0,99,0.00,,CLR,0.00,VWS V14.01,2013-07-18 11:52:00,
2013-07-18 07:57:00,74.4,74.4,30.12,North,351,0.0,0.0,100,0.00,,CLR,0.00,VWS V14.01,2013-07-18 11:57:00,
2013-07-18 08:02:00,74.7,74.7,30.12,North,351,0.0,0.0,100,0.00,,CLR,0.00,VWS V14.01,2013-07-18 12:02:00,
2013-07-18 08:07:00,75.1,75.1,30.12,North,351,0.0,1.2,100,0.00,,CLR,0.00,VWS V14.01,2013-07-18 12:07:00,
2013-07-18 08:12:00,75.6,75.6,30.12,North,351,0.0,0.0,100,0.00,,CLR,0.00,VWS V14.01,2013-07-18 12:12:00,
2013-07-18 08:17:00,76.0,76.0,30.13,North,351,0.0,0.0,100,0.00,,CLR,0.00,VWS V14.01,2013-07-18 12:17:00,
2013-07-18 08:22:00,76.3,76.3,30.13,SW,229,0.0,4.7,100,0.00,,CLR,0.00,VWS V14.01,2013-07-18 12:22:00,
2013-07-18 08:27:00,76.5,76.5,30.13,SW,230,2.4,3.5,100,0.00,,CLR,0.00,VWS V14.01,2013-07-18 12:27:00,
2013-07-18 08:32:00,76.7,76.7,30.12,SW,217,0.0,0.0,100,0.00,,CLR,0.00,VWS V14.01,2013-07-18 12:32:00,
2013-07-18 08:37:00,77.2,77.2,30.12,SW,217,0.0,1.2,100,0.00,,CLR,0.00,VWS V14.01,2013-07-18 12:37:00,
2013-07-18 08:43:00,77.6,77.6,30.12,SW,217,0.0,0.0,100,0.00,,CLR,0.00,VWS V14.01,2013-07-18 12:43:00,
2013-07-18 08:48:00,78.1,78.1,30.12,SW,221,0.0,0.0,100,0.00,,CLR,0.00,VWS V14.01,2013-07-18 12:48:00,
2013-07-18 08:53:00,78.5,78.5,30.12,SW,226,1.2,2.4,100,0.00,,CLR,0.00,VWS V14.01,2013-07-18 12:53:00,
2013-07-18 08:58:00,79.0,79.0,30.12,SW,226,0.0,0.0,100,0.00,,CLR,0.00,VWS V14.01,2013-07-18 12:58:00,
2013-07-18 09:03:00,79.4,78.2,30.12,SW,226,0.0,0.0,96,0.00,,CLR,0.00,VWS V14.01,2013-07-18 13:03:00,
2013-07-18 09:08:00,79.9,78.3,30.12,SW,227,0.0,0.0,95,0.00,,CLR,0.00,VWS V14.01,2013-07-18 13:08:00,
2013-07-18 09:13:00,80.7,79.1,30.12,West,259,0.0,0.0,95,0.00,,CLR,0.00,VWS V14.01,2013-07-18 13:13:00,
2013-07-18 09:18:00,81.2,79.3,30.12,West,259,1.2,1.2,94,0.00,,CLR,0.00,VWS V14.01,2013-07-18 13:18:00,
2013-07-18 09:23:00,81.8,79.2,30.12,West,259,0.0,0.0,92,0.00,,CLR,0.00,VWS V14.01,2013-07-18 13:23:00,
2013-07-18 09:28:00,82.6,79.7,30.12,West,259,0.0,0.0,91,0.00,,CLR,0.00,VWS V14.01,2013-07-18 13:28:00,
2013-07-18 09:33:00,83.4,79.8,30.12,West,259,3.5,3.5,89,0.00,,CLR,0.00,VWS V14.01,2013-07-18 13:33:00,
2013-07-18 09:38:00,84.0,79.3,30.12,NNW,329,0.0,1.2,86,0.00,,CLR,0.00,VWS V14.01,2013-07-18 13:38:00,
2013-07-18 09:43:00,84.5,78.3,30.12,NNW,329,0.0,1.2,82,0.00,,CLR,0.00,VWS V14.01,2013-07-18 13:43:00,
2013-07-18 09:48:00,85.3,78.0,30.12,NNW,329,0.0,1.2,79,0.00,,CLR,0.00,VWS V14.01,2013-07-18 13:48:00,
2013-07-18 09:53:00,85.9,77.4,30.12,NNW,329,0.0,2.4,76,0.00,,CLR,0.00,VWS V14.01,2013-07-18 13:53:00,
2013-07-18 09:58:00,86.5,77.1,30.12,NNW,329,0.0,0.0,74,0.00,,CLR,0.00,VWS V14.01,2013-07-18 13:58:00,
2013-07-18 10:03:00,87.2,77.0,30.12,SW,215,0.0,4.7,72,0.00,,CLR,0.00,VWS V14.01,2013-07-18 14:03:00,
2013-07-18 10:08:00,87.6,76.0,30.11,West,280,3.5,3.5,69,0.00,,CLR,0.00,VWS V14.01,2013-07-18 14:08:00,
2013-07-18 10:13:00,88.0,76.4,30.11,West,281,0.0,1.2,69,0.00,,CLR,0.00,VWS V14.01,2013-07-18 14:13:00,
2013-07-18 10:18:00,88.4,76.3,30.11,West,281,0.0,1.2,68,0.00,,CLR,0.00,VWS V14.01,2013-07-18 14:18:00,
2013-07-18 10:23:00,88.8,75.4,30.11,West,281,1.2,1.2,65,0.00,,CLR,0.00,VWS V14.01,2013-07-18 14:23:00,
2013-07-18 10:28:00,89.0,75.1,30.11,West,279,1.2,3.5,64,0.00,,CLR,0.00,VWS V14.01,2013-07-18 14:28:00,
2013-07-18 10:33:00,89.5,76.0,30.11,West,279,0.0,1.2,65,0.00,,CLR,0.00,VWS V14.01,2013-07-18 14:33:00,
2013-07-18 10:39:00,89.9,75.9,30.11,SSW,206,0.0,2.4,64,0.00,,CLR,0.00,VWS V14.01,2013-07-18 14:39:00,
2013-07-18 10:44:00,90.3,75.8,30.11,WNW,290,0.0,0.0,63,0.00,,CLR,0.00,VWS V14.01,2013-07-18 14:44:00,
2013-07-18 10:49:00,90.5,76.0,30.11,WNW,290,3.5,3.5,63,0.00,,CLR,0.00,VWS V14.01,2013-07-18 14:49:00,
2013-07-18 10:54:00,91.0,76.0,30.11,SW,226,0.0,5.9,62,0.00,,CLR,0.00,VWS V14.01,2013-07-18 14:54:00,
2013-07-18 10:59:00,91.2,75.2,30.11,NW,325,0.0,1.2,60,0.00,,CLR,0.00,VWS V14.01,2013-07-18 14:59:00,
2013-07-18 11:04:00,91.4,74.3,30.11,NW,325,4.7,4.7,58,0.00,,CLR,0.00,VWS V14.01,2013-07-18 15:04:00,
2013-07-18 11:09:00,91.4,74.8,30.11,SSW,211,0.0,0.0,59,0.00,,CLR,0.00,VWS V14.01,2013-07-18 15:09:00,
2013-07-18 11:14:00,91.6,74.5,30.11,SSW,212,1.2,1.2,58,0.00,,CLR,0.00,VWS V14.01,2013-07-18 15:14:00,
2013-07-18 11:19:00,91.4,74.3,30.11,South,184,0.0,1.2,58,0.00,,CLR,0.00,VWS V14.01,2013-07-18 15:19:00,
2013-07-18 11:24:00,91.4,74.3,30.11,SSW,207,2.4,2.4,58,0.00,,CLR,0.00,VWS V14.01,2013-07-18 15:24:00,
2013-07-18 11:29:00,91.2,74.7,30.11,SSW,207,0.0,0.0,59,0.00,,CLR,0.00,VWS V14.01,2013-07-18 15:29:00,
2013-07-18 11:34:00,91.0,74.5,30.10,South,184,0.0,0.0,59,0.00,,CLR,0.00,VWS V14.01,2013-07-18 15:34:00,
2013-07-18 11:39:00,91.2,75.2,30.10,SSW,193,1.2,2.4,60,0.00,,CLR,0.00,VWS V14.01,2013-07-18 15:39:00,
2013-07-18 11:44:00,91.4,75.4,30.10,NW,308,0.0,1.2,60,0.00,,CLR,0.00,VWS V14.01,2013-07-18 15:44:00,
2013-07-18 11:49:00,91.6,75.0,30.10,NW,308,0.0,0.0,59,0.00,,CLR,0.00,VWS V14.01,2013-07-18 15:49:00,
2013-07-18 11:54:00,91.8,74.7,30.10,NW,307,0.0,1.2,58,0.00,,CLR,0.00,VWS V14.01,2013-07-18 15:54:00,
2013-07-18 11:59:00,92.1,75.0,30.10,NW,307,0.0,3.5,58,0.00,,CLR,0.00,VWS V14.01,2013-07-18 15:59:00,
2013-07-18 12:04:00,92.3,75.2,30.10,SSW,194,7.1,9.4,58,0.00,,CLR,0.00,VWS V14.01,2013-07-18 16:04:00,
2013-07-18 12:09:00,92.5,74.8,30.10,SSW,198,4.7,9.4,57,0.00,,CLR,0.00,VWS V14.01,2013-07-18 16:09:00,
2013-07-18 12:10:00,92.5,74.8,30.10,South,178,7.1,7.1,57,0.00,,CLR,0.00,VWS V14.01,2013-07-18 16:10:00,
2013-07-18 12:15:00,92.5,74.3,30.10,SSW,194,3.5,11.8,56,0.00,,CLR,0.00,VWS V14.01,2013-07-18 16:15:00,
2013-07-18 12:20:00,92.7,73.9,30.10,SW,232,4.7,4.7,55,0.00,,CLR,0.00,VWS V14.01,2013-07-18 16:20:00,
2013-07-18 12:25:00,92.9,74.7,30.10,WSW,247,7.1,7.1,56,0.00,,CLR,0.00,VWS V14.01,2013-07-18 16:25:00,
2013-07-18 12:30:00,92.9,74.7,30.10,WSW,245,2.4,8.3,56,0.00,,CLR,0.00,VWS V14.01,2013-07-18 16:30:00,
2013-07-18 12:35:00,92.9,74.1,30.10,NW,312,2.4,2.4,55,0.00,,CLR,0.00,VWS V14.01,2013-07-18 16:35:00,
2013-07-18 12:40:00,92.9,74.1,30.10,SSW,199,0.0,0.0,55,0.00,,SCT100,0.00,VWS V14.01,2013-07-18 16:40:00,
2013-07-18 12:45:00,93.2,74.9,30.10,SSW,202,4.7,10.6,56,0.00,,SCT100,0.00,VWS V14.01,2013-07-18 16:45:00,
2013-07-18 12:50:00,93.2,76.0,30.09,SSW,211,5.9,9.4,58,0.00,,SCT100,0.00,VWS V14.01,2013-07-18 16:50:00,
2013-07-18 12:55:00,93.2,73.8,30.09,SW,231,5.9,7.1,54,0.00,,SCT100,0.00,VWS V14.01,2013-07-18 16:55:00,
2013-07-18 13:00:00,92.9,74.1,30.09,West,271,2.4,9.4,55,0.00,,SCT100,0.00,VWS V14.01,2013-07-18 17:00:00,
2013-07-18 13:05:00,92.5,74.3,30.09,West,260,4.7,4.7,56,0.00,,SCT100,0.00,VWS V14.01,2013-07-18 17:05:00,
2013-07-18 13:10:00,92.3,74.6,30.09,SW,221,0.0,3.5,57,0.00,,SCT100,0.00,VWS V14.01,2013-07-18 17:10:00,
2013-07-18 13:15:00,91.8,73.6,30.09,SSW,196,0.0,2.4,56,0.00,,SCT100,0.00,VWS V14.01,2013-07-18 17:15:00,
2013-07-18 13:20:00,91.4,74.3,30.08,WNW,284,4.7,5.9,58,0.00,,SCT100,0.00,VWS V14.01,2013-07-18 17:20:00,
2013-07-18 13:25:00,91.2,74.7,30.08,West,272,0.0,1.2,59,0.00,,SCT100,0.00,VWS V14.01,2013-07-18 17:25:00,
2013-07-18 13:30:00,90.7,74.2,30.09,West,272,0.0,2.4,59,0.00,,SCT100,0.00,VWS V14.01,2013-07-18 17:30:00,
2013-07-18 13:35:00,90.1,73.6,30.08,SW,234,1.2,4.7,59,0.00,,SCT100,0.00,VWS V14.01,2013-07-18 17:35:00,
2013-07-18 13:40:00,89.5,73.1,30.08,SW,233,0.0,0.0,59,0.00,,CLR,0.00,VWS V14.01,2013-07-18 17:40:00,
2013-07-18 13:45:00,88.8,72.9,30.08,SW,233,0.0,2.4,60,0.00,,CLR,0.00,VWS V14.01,2013-07-18 17:45:00,
2013-07-18 13:50:00,88.4,73.6,30.07,West,277,1.2,2.4,62,0.00,,CLR,0.00,VWS V14.01,2013-07-18 17:50:00,
2013-07-18 13:55:00,88.2,73.4,30.07,West,277,0.0,0.0,62,0.00,,CLR,0.00,VWS V14.01,2013-07-18 17:55:00,
2013-07-18 14:00:00,88.2,73.8,30.07,WNW,292,2.4,2.4,63,0.00,,CLR,0.00,VWS V14.01,2013-07-18 18:00:00,
2013-07-18 14:05:00,88.4,73.6,30.07,West,269,1.2,4.7,62,0.00,,CLR,0.00,VWS V14.01,2013-07-18 18:05:00,
2013-07-18 14:10:00,89.0,73.6,30.07,NW,308,0.0,5.9,61,0.00,,CLR,0.00,VWS V14.01,2013-07-18 18:10:00,
2013-07-18 14:15:00,89.7,73.3,30.07,WSW,256,0.0,1.2,59,0.00,,CLR,0.00,VWS V14.01,2013-07-18 18:15:00,
2013-07-18 14:20:00,90.3,74.3,30.07,SSW,194,0.0,5.9,60,0.00,,CLR,0.00,VWS V14.01,2013-07-18 18:20:00,
2013-07-18 14:25:00,90.7,73.7,30.07,SSW,213,1.2,2.4,58,0.00,,CLR,0.00,VWS V14.01,2013-07-18 18:25:00,
2013-07-18 14:30:00,91.2,73.6,30.07,SSW,196,3.5,5.9,57,0.00,,CLR,0.00,VWS V14.01,2013-07-18 18:30:00,
2013-07-18 14:35:00,91.4,73.8,30.07,SSW,199,0.0,0.0,57,0.00,,CLR,0.00,VWS V14.01,2013-07-18 18:35:00,
2013-07-18 14:40:00,91.4,74.3,30.08,NW,315,9.4,9.4,58,0.00,,OVC095,0.00,VWS V14.01,2013-07-18 18:40:00,
2013-07-18 14:45:00,89.9,71.9,30.08,NW,316,10.6,13.0,56,0.00,,OVC095,0.00,VWS V14.01,2013-07-18 18:45:00,
2013-07-18 14:50:00,87.8,71.0,30.08,NW,311,14.2,14.2,58,0.00,,OVC095,0.00,VWS V14.01,2013-07-18 18:50:00,
2013-07-18 14:55:00,85.7,70.5,30.08,NNW,341,7.1,9.4,61,0.00,,OVC095,0.00,VWS V14.01,2013-07-18 18:55:00,
2013-07-18 15:00:00,84.0,70.3,30.07,NNW,346,3.5,4.7,64,0.00,,OVC095,0.00,VWS V14.01,2013-07-18 19:00:00,
2013-07-18 15:05:00,83.0,70.8,30.07,NW,304,0.0,2.4,67,0.00,,OVC095,0.00,VWS V14.01,2013-07-18 19:05:00,
2013-07-18 15:10:00,82.2,70.4,30.06,NW,304,0.0,0.0,68,0.00,,OVC095,0.00,VWS V14.01,2013-07-18 19:10:00,
2013-07-18 15:15:00,81.6,70.3,30.06,WNW,303,0.0,1.2,69,0.00,,OVC095,0.00,VWS V14.01,2013-07-18 19:15:00,
2013-07-18 15:20:00,81.2,70.4,30.06,WNW,303,0.0,0.0,70,0.00,,OVC095,0.00,VWS V14.01,2013-07-18 19:20:00,
2013-07-18 15:25:00,81.1,70.7,30.05,WNW,303,0.0,0.0,71,0.00,,OVC095,0.00,VWS V14.01,2013-07-18 19:25:00,
2013-07-18 15:30:00,81.1,70.7,30.05,WNW,303,0.0,0.0,71,0.00,,OVC095,0.00,VWS V14.01,2013-07-18 19:30:00,
2013-07-18 15:35:00,81.1,71.1,30.05,WNW,303,0.0,0.0,72,0.00,,OVC095,0.00,VWS V14.01,2013-07-18 19:35:00,
2013-07-18 15:40:00,81.2,71.6,30.05,WNW,303,0.0,1.2,73,0.00,,CLR,0.00,VWS V14.01,2013-07-18 19:40:00,
2013-07-18 15:46:00,81.4,72.2,30.05,WNW,303,0.0,0.0,74,0.00,,CLR,0.00,VWS V14.01,2013-07-18 19:46:00,
2013-07-18 15:51:00,81.6,72.4,30.04,NW,304,0.0,0.0,74,0.00,,CLR,0.00,VWS V14.01,2013-07-18 19:51:00,
2013-07-18 15:56:00,82.0,73.2,30.04,WNW,303,0.0,0.0,75,0.00,,CLR,0.00,VWS V14.01,2013-07-18 19:56:00,
2013-07-18 16:01:00,82.4,73.6,30.04,WNW,303,0.0,0.0,75,0.00,,CLR,0.00,VWS V14.01,2013-07-18 20:01:00,
2013-07-18 16:06:00,83.0,74.2,30.03,WNW,303,0.0,0.0,75,0.00,,CLR,0.00,VWS V14.01,2013-07-18 20:06:00,
2013-07-18 16:11:00,83.6,74.7,30.03,WNW,303,0.0,0.0,75,0.00,,CLR,0.00,VWS V14.01,2013-07-18 20:11:00,
2013-07-18 16:16:00,84.1,75.2,30.03,WNW,303,0.0,0.0,75,0.00,,CLR,0.00,VWS V14.01,2013-07-18 20:16:00,
2013-07-18 16:21:00,84.5,74.4,30.02,WNW,303,0.0,0.0,72,0.00,,CLR,0.00,VWS V14.01,2013-07-18 20:21:00,
2013-07-18 16:26:00,85.1,74.5,30.02,WNW,303,0.0,0.0,71,0.00,,CLR,0.00,VWS V14.01,2013-07-18 20:26:00,
2013-07-18 16:31:00,85.7,74.2,30.02,WNW,303,0.0,0.0,69,0.00,,CLR,0.00,VWS V14.01,2013-07-18 20:31:00,
2013-07-18 16:36:00,86.5,74.1,30.02,WNW,303,0.0,0.0,67,0.00,,CLR,0.00,VWS V14.01,2013-07-18 20:36:00,
2013-07-18 16:41:00,87.4,74.5,30.02,WNW,300,0.0,0.0,66,0.00,,CLR,0.00,VWS V14.01,2013-07-18 20:41:00,
2013-07-18 16:46:00,88.2,74.8,30.01,West,270,0.0,0.0,65,0.00,,CLR,0.00,VWS V14.01,2013-07-18 20:46:00,
2013-07-18 16:51:00,88.8,74.4,30.01,West,271,1.2,2.4,63,0.00,,CLR,0.00,VWS V14.01,2013-07-18 20:51:00,
2013-07-18 16:56:00,89.5,74.1,30.01,West,277,0.0,1.2,61,0.00,,CLR,0.00,VWS V14.01,2013-07-18 20:56:00,
2013-07-18 17:01:00,90.1,74.2,30.01,West,277,0.0,1.2,60,0.00,,CLR,0.00,VWS V14.01,2013-07-18 21:01:00,
2013-07-18 17:06:00,90.7,74.7,30.01,West,277,0.0,0.0,60,0.00,,CLR,0.00,VWS V14.01,2013-07-18 21:06:00,
2013-07-18 17:11:00,91.2,74.2,30.01,West,262,2.4,2.4,58,0.00,,CLR,0.00,VWS V14.01,2013-07-18 21:11:00,
2013-07-18 17:16:00,91.6,74.5,30.00,NNW,330,0.0,0.0,58,0.00,,CLR,0.00,VWS V14.01,2013-07-18 21:16:00,
2013-07-18 17:21:00,91.8,74.7,30.00,NNW,330,0.0,0.0,58,0.00,,CLR,0.00,VWS V14.01,2013-07-18 21:21:00,
2013-07-18 17:26:00,92.1,75.0,30.00,NNW,330,0.0,1.2,58,0.00,,CLR,0.00,VWS V14.01,2013-07-18 21:26:00,
2013-07-18 17:31:00,92.3,74.1,30.00,NW,323,1.2,1.2,56,0.00,,CLR,0.00,VWS V14.01,2013-07-18 21:31:00,
2013-07-18 17:36:00,92.5,74.8,30.00,NW,309,0.0,1.2,57,0.00,,CLR,0.00,VWS V14.01,2013-07-18 21:36:00,
2013-07-18 17:41:00,92.5,75.4,30.00,SW,232,0.0,1.2,58,0.00,,CLR,0.00,VWS V14.01,2013-07-18 21:41:00,
2013-07-18 17:46:00,92.7,75.5,29.99,SW,216,1.2,2.4,58,0.00,,CLR,0.00,VWS V14.01,2013-07-18 21:46:00,
2013-07-18 17:51:00,92.9,75.7,29.99,SSW,205,0.0,2.4,58,0.00,,CLR,0.00,VWS V14.01,2013-07-18 21:51:00,
2013-07-18 17:56:00,92.9,75.2,29.99,SSW,208,0.0,1.2,57,0.00,,CLR,0.00,VWS V14.01,2013-07-18 21:56:00,
2013-07-18 18:02:00,93.2,76.0,29.99,SSW,207,0.0,0.0,58,0.00,,CLR,0.00,VWS V14.01,2013-07-18 22:02:00,
2013-07-18 18:07:00,92.9,75.7,29.99,SSW,207,0.0,0.0,58,0.00,,CLR,0.00,VWS V14.01,2013-07-18 22:07:00,
2013-07-18 18:11:00,92.7,75.5,29.98,SSW,208,0.0,0.0,58,0.00,,CLR,0.00,VWS V14.01,2013-07-18 22:11:00,
2013-07-18 18:16:00,92.5,74.8,29.98,SW,219,0.0,7.1,57,0.00,,CLR,0.00,VWS V14.01,2013-07-18 22:16:00,
2013-07-18 18:22:00,92.5,75.4,29.98,WSW,246,0.0,0.0,58,0.00,,CLR,0.00,VWS V14.01,2013-07-18 22:22:00,
2013-07-18 18:27:00,92.3,74.1,29.98,SSW,195,0.0,0.0,56,0.00,,CLR,0.00,VWS V14.01,2013-07-18 22:27:00,
2013-07-18 18:32:00,91.8,73.6,29.98,West,275,0.0,1.2,56,0.00,,CLR,0.00,VWS V14.01,2013-07-18 22:32:00,
2013-07-18 18:37:00,91.8,73.6,29.98,SSW,205,4.7,4.7,56,0.00,,CLR,0.00,VWS V14.01,2013-07-18 22:37:00,
2013-07-18 18:42:00,91.4,72.7,29.97,SSW,192,7.1,7.1,55,0.00,,CLR,0.00,VWS V14.01,2013-07-18 22:42:00,
2013-07-18 18:47:00,91.2,73.1,29.97,South,184,1.2,2.4,56,0.00,,CLR,0.00,VWS V14.01,2013-07-18 22:47:00,
2013-07-18 18:52:00,91.2,73.6,29.97,SSW,202,4.7,4.7,57,0.00,,CLR,0.00,VWS V14.01,2013-07-18 22:52:00,
2013-07-18 18:57:00,91.2,73.6,29.96,WSW,237,1.2,5.9,57,0.00,,CLR,0.00,VWS V14.01,2013-07-18 22:57:00,
2013-07-18 19:02:00,91.4,73.8,29.96,SW,234,2.4,4.7,57,0.00,,CLR,0.00,VWS V14.01,2013-07-18 23:02:00,
2013-07-18 19:07:00,91.2,73.1,29.96,SSW,192,7.1,7.1,56,0.00,,CLR,0.00,VWS V14.01,2013-07-18 23:07:00,
2013-07-18 19:12:00,91.2,73.1,29.96,SW,216,1.2,1.2,56,0.00,,CLR,0.00,VWS V14.01,2013-07-18 23:12:00,
2013-07-18 19:17:00,91.2,73.6,29.96,SW,220,0.0,2.4,57,0.00,,CLR,0.00,VWS V14.01,2013-07-18 23:17:00,
2013-07-18 19:22:00,91.0,72.9,29.96,SSW,198,3.5,3.5,56,0.00,,CLR,0.00,VWS V14.01,2013-07-18 23:22:00,
2013-07-18 19:27:00,91.0,73.4,29.96,SW,218,1.2,1.2,57,0.00,,CLR,0.00,VWS V14.01,2013-07-18 23:27:00,
2013-07-18 19:32:00,91.0,72.9,29.96,SW,221,1.2,7.1,56,0.00,,CLR,0.00,VWS V14.01,2013-07-18 23:32:00,
2013-07-18 19:37:00,91.0,73.4,29.96,South,175,0.0,3.5,57,0.00,,CLR,0.00,VWS V14.01,2013-07-18 23:37:00,
2013-07-18 19:42:00,90.7,72.6,29.96,West,273,1.2,8.3,56,0.00,,CLR,0.00,VWS V14.01,2013-07-18 23:42:00,
2013-07-18 19:47:00,90.5,72.4,29.96,SSW,208,1.2,5.9,56,0.00,,CLR,0.00,VWS V14.01,2013-07-18 23:47:00,
2013-07-18 19:52:00,90.3,72.8,29.96,SW,217,1.2,9.4,57,0.00,,CLR,0.00,VWS V14.01,2013-07-18 23:52:00,
2013-07-18 19:57:00,89.9,72.4,29.96,SW,215,3.5,3.5,57,0.00,,CLR,0.00,VWS V14.01,2013-07-18 23:57:00,
2013-07-18 20:02:00,89.5,72.6,29.96,SSW,210,2.4,4.7,58,0.00,,CLR,0.00,VWS V14.01,2013-07-19 00:02:00,
2013-07-18 20:07:00,89.0,72.6,29.96,SW,216,0.0,3.5,59,0.00,,CLR,0.00,VWS V14.01,2013-07-19 00:07:00,
2013-07-18 20:12:00,88.8,72.9,29.96,SSW,211,2.4,2.4,60,0.00,,CLR,0.00,VWS V14.01,2013-07-19 00:12:00,
2013-07-18 20:17:00,88.4,72.6,29.96,WSW,240,2.4,4.7,60,0.00,,CLR,0.00,VWS V14.01,2013-07-19 00:17:00,
2013-07-18 20:22:00,88.2,72.9,29.96,SW,222,3.5,4.7,61,0.00,,CLR,0.00,VWS V14.01,2013-07-19 00:22:00,
2013-07-18 20:27:00,87.8,72.5,29.96,SSW,208,2.4,4.7,61,0.00,,CLR,0.00,VWS V14.01,2013-07-19 00:27:00,
2013-07-18 20:32:00,87.6,72.8,29.96,SSW,208,3.5,3.5,62,0.00,,CLR,0.00,VWS V14.01,2013-07-19 00:32:00,
2013-07-18 20:37:00,87.2,72.4,29.95,SSW,208,0.0,0.0,62,0.00,,CLR,0.00,VWS V14.01,2013-07-19 00:37:00,
2013-07-18 20:42:00,87.0,72.7,29.95,SW,218,0.0,3.5,63,0.00,,CLR,0.00,VWS V14.01,2013-07-19 00:42:00,
2013-07-18 20:47:00,86.7,72.4,29.95,SSW,204,0.0,0.0,63,0.00,,CLR,0.00,VWS V14.01,2013-07-19 00:47:00,
2013-07-18 20:52:00,86.5,72.7,29.95,SSW,204,0.0,2.4,64,0.00,,CLR,0.00,VWS V14.01,2013-07-19 00:52:00,
2013-07-18 20:57:00,86.3,73.0,29.95,SSW,206,0.0,0.0,65,0.00,,CLR,0.00,VWS V14.01,2013-07-19 00:57:00,
2013-07-18 21:02:00,86.1,72.8,29.95,SSW,206,0.0,0.0,65,0.00,,CLR,0.00,VWS V14.01,2013-07-19 01:02:00,
2013-07-18 21:07:00,85.7,72.4,29.95,SSW,206,0.0,0.0,65,0.00,,CLR,0.00,VWS V14.01,2013-07-19 01:07:00,
2013-07-18 21:12:00,85.5,72.7,29.95,SSW,206,0.0,0.0,66,0.00,,CLR,0.00,VWS V14.01,2013-07-19 01:12:00,
2013-07-18 21:17:00,85.3,72.5,29.95,SSW,206,0.0,0.0,66,0.00,,CLR,0.00,VWS V14.01,2013-07-19 01:17:00,
2013-07-18 21:22:00,85.1,72.3,29.95,SSW,206,0.0,0.0,66,0.00,,CLR,0.00,VWS V14.01,2013-07-19 01:22:00,
2013-07-18 21:27:00,84.7,72.4,29.95,SSW,206,0.0,0.0,67,0.00,,CLR,0.00,VWS V14.01,2013-07-19 01:27:00,
2013-07-18 21:32:00,84.5,72.6,29.95,SSW,206,0.0,0.0,68,0.00,,CLR,0.00,VWS V14.01,2013-07-19 01:32:00,
2013-07-18 21:37:00,84.1,72.7,29.95,SSW,206,0.0,0.0,69,0.00,,CLR,0.00,VWS V14.01,2013-07-19 01:37:00,
2013-07-18 21:42:00,84.0,72.6,29.96,SSW,206,0.0,2.4,69,0.00,,CLR,0.00,VWS V14.01,2013-07-19 01:42:00,
2013-07-18 21:47:00,83.6,73.1,29.96,SSW,206,0.0,0.0,71,0.00,,CLR,0.00,VWS V14.01,2013-07-19 01:47:00,
2013-07-18 21:52:00,83.4,72.9,29.96,SSW,206,0.0,0.0,71,0.00,,CLR,0.00,VWS V14.01,2013-07-19 01:52:00,
2013-07-18 21:57:00,83.2,73.1,29.96,SSW,206,0.0,0.0,72,0.00,,CLR,0.00,VWS V14.01,2013-07-19 01:57:00,
2013-07-18 22:02:00,82.8,73.2,29.96,West,265,1.2,3.5,73,0.00,,CLR,0.00,VWS V14.01,2013-07-19 02:02:00,
2013-07-18 22:07:00,82.6,73.4,29.96,West,265,0.0,1.2,74,0.00,,CLR,0.00,VWS V14.01,2013-07-19 02:07:00,
2013-07-18 22:12:00,82.4,73.2,29.96,SSW,207,0.0,5.9,74,0.00,,CLR,0.00,VWS V14.01,2013-07-19 02:12:00,
2013-07-18 22:17:00,82.4,73.2,29.96,SSW,209,0.0,3.5,74,0.00,,CLR,0.00,VWS V14.01,2013-07-19 02:17:00,
2013-07-18 22:22:00,82.2,73.4,29.96,SSW,208,2.4,2.4,75,0.00,,CLR,0.00,VWS V14.01,2013-07-19 02:22:00,
2013-07-18 22:27:00,82.0,73.2,29.96,SW,221,0.0,1.2,75,0.00,,CLR,0.00,VWS V14.01,2013-07-19 02:27:00,
2013-07-18 22:32:00,82.0,73.2,29.96,SSE,148,1.2,4.7,75,0.00,,CLR,0.00,VWS V14.01,2013-07-19 02:32:00,
2013-07-18 22:37:00,81.8,73.0,29.96,SSE,152,0.0,0.0,75,0.00,,CLR,0.00,VWS V14.01,2013-07-19 02:37:00,
2013-07-18 22:42:00,81.6,72.8,29.96,SSE,152,0.0,1.2,75,0.00,,CLR,0.00,VWS V14.01,2013-07-19 02:42:00,
2013-07-18 22:47:00,81.6,73.2,29.96,SSE,157,0.0,0.0,76,0.00,,CLR,0.00,VWS V14.01,2013-07-19 02:47:00,
2013-07-18 22:52:00,81.4,73.0,29.96,South,191,3.5,4.7,76,0.00,,CLR,0.00,VWS V14.01,2013-07-19 02:52:00,
2013-07-18 22:57:00,81.2,72.8,29.96,SSW,193,0.0,2.4,76,0.00,,CLR,0.00,VWS V14.01,2013-07-19 02:57:00,
2013-07-18 23:02:00,81.1,72.7,29.97,SSW,201,0.0,3.5,76,0.00,,CLR,0.00,VWS V14.01,2013-07-19 03:02:00,
2013-07-18 23:07:00,80.9,72.9,29.97,SSW,201,0.0,1.2,77,0.00,,CLR,0.00,VWS V14.01,2013-07-19 03:07:00,
2013-07-18 23:12:00,80.9,72.9,29.97,SSW,195,0.0,2.4,77,0.00,,CLR,0.00,VWS V14.01,2013-07-19 03:12:00,
2013-07-18 23:17:00,80.7,72.7,29.96,SSW,207,0.0,0.0,77,0.00,,CLR,0.00,VWS V14.01,2013-07-19 03:17:00,
2013-07-18 23:22:00,80.5,72.5,29.96,SSW,207,0.0,1.2,77,0.00,,CLR,0.00,VWS V14.01,2013-07-19 03:22:00,
2013-07-18 23:27:00,80.3,72.3,29.96,SSW,206,0.0,1.2,77,0.00,,CLR,0.00,VWS V14.01,2013-07-19 03:27:00,
2013-07-18 23:32:00,80.3,72.7,29.96,SSW,206,0.0,0.0,78,0.00,,CLR,0.00,VWS V14.01,2013-07-19 03:32:00,
2013-07-18 23:37:00,80.1,72.5,29.96,SSW,208,0.0,1.2,78,0.00,,CLR,0.00,VWS V14.01,2013-07-19 03:37:00,
2013-07-18 23:42:00,79.9,72.7,29.96,SSW,209,0.0,1.2,79,0.00,,CLR,0.00,VWS V14.01,2013-07-19 03:42:00,
2013-07-18 23:47:00,79.9,72.7,29.96,SSW,209,0.0,2.4,79,0.00,,CLR,0.00,VWS V14.01,2013-07-19 03:47:00,
2013-07-18 23:52:00,79.8,72.6,29.96,SSW,209,0.0,0.0,79,0.00,,CLR,0.00,VWS V14.01,2013-07-19 03:52:00,
2013-07-18 23:57:00,79.6,72.8,29.96,SSW,209,0.0,0.0,80,0.00,,CLR,0.00,VWS V14.01,2013-07-19 03:57:00,